Saint Johnsbury, Vermont
Current Conditions -  °F | °C
As of 4:15 PM on Thursday 20 Nov 2014 (Local Time) from KCDA Reporting Station
Unknown Precip Unknown Precip  
Wind Chill: 19°   Ceiling: 3400
Heat Index: 28°   Visibility: 10mi
Dew Point: 20°   Wind: 8mph
Humidity: 74%   Direction: 250°WSW
Pressure: 29.73"   Gusts: NA
Location:  44.42°N, 72.01°W
Report Text: KCDA 202115Z AUTO 25007KT 10SM UP SCT028 BKN034 OVC046 M02/M06 A2973 RMK AO2 T10251065
Loading
Personal Weather Stations






























Interactive Weather Map New forecast layout! Learn more

10-Day Weather Forecast

Advertisements
Track Severe Weather on mobile